Time;durP1;ratioP1;P1;durP2;ratioP2;P2;SDS_P1;SDS_P2;PMS_P1;PMS_P2;Temp;Humidity;BMP_temperature;BMP_pressure;BME280_temperature;BME280_humidity;BME280_pressure;Samples;Min_cycle;Max_cycle;Signal;HPM_P1;HPM_P2
2022/07/13 00:01:59;;;;;;;1.20;0.10;;;;;;;26.66;49.46;101263.19;5091108;28;20024;-40
2022/07/13 00:04:25;;;;;;;0.30;0.10;;;;;;;26.66;49.43;101255.16;5091217;28;20035;-38
2022/07/13 00:06:51;;;;;;;0.60;0.10;;;;;;;26.67;49.33;101256.78;5090843;28;20036;-38
2022/07/13 00:09:16;;;;;;;1.10;0.20;;;;;;;26.67;49.46;101259.47;5090798;28;20028;-37
2022/07/13 00:11:42;;;;;;;1.70;0.20;;;;;;;26.67;49.40;101255.97;5090804;28;20112;-34
2022/07/13 00:14:08;;;;;;;0.93;0.20;;;;;;;26.67;49.34;101259.47;5090325;28;20039;-42
2022/07/13 00:16:34;;;;;;;1.38;0.30;;;;;;;26.66;49.25;101259.69;5090752;28;20509;-41
2022/07/13 00:18:59;;;;;;;0.40;0.20;;;;;;;26.63;49.30;101255.63;5090754;28;20036;-40
2022/07/13 00:21:25;;;;;;;0.50;0.20;;;;;;;26.62;49.45;101259.34;5090646;28;20020;-40
2022/07/13 00:23:50;;;;;;;0.40;0.10;;;;;;;26.60;49.38;101258.75;5092930;28;20074;-34
2022/07/13 00:26:16;;;;;;;0.63;0.20;;;;;;;26.59;49.24;101251.78;5090000;28;20036;-38
2022/07/13 00:28:42;;;;;;;0.57;0.20;;;;;;;26.58;48.93;101246.66;5090528;28;20025;-37
2022/07/13 00:31:07;;;;;;;0.70;0.20;;;;;;;26.57;48.79;101245.84;5090550;28;20082;-40
2022/07/13 00:33:33;;;;;;;0.75;0.20;;;;;;;26.56;48.60;101254.91;5089909;28;20044;-38
2022/07/13 00:35:59;;;;;;;1.58;0.20;;;;;;;26.55;48.26;101249.81;5089338;28;20039;-39
2022/07/13 00:38:24;;;;;;;0.70;0.20;;;;;;;26.54;48.15;101257.00;5090499;28;20158;-42
2022/07/13 00:40:50;;;;;;;0.52;0.10;;;;;;;26.52;48.08;101259.09;5090251;28;20039;-37
2022/07/13 00:43:15;;;;;;;0.57;0.20;;;;;;;26.54;47.94;101258.88;5116824;22;20338;-67
2022/07/13 00:45:40;;;;;;;1.45;0.20;;;;;;;26.54;47.99;101259.69;5068180;28;20457;-66
2022/07/13 00:48:06;;;;;;;0.73;0.20;;;;;;;26.55;48.08;101250.63;5070018;28;20036;-66
2022/07/13 00:50:32;;;;;;;1.13;0.15;;;;;;;26.56;47.90;101249.56;5069971;28;20020;-66
2022/07/13 00:52:58;;;;;;;0.90;0.20;;;;;;;26.57;47.86;101256.53;5069641;28;20166;-67
2022/07/13 00:55:25;;;;;;;0.80;0.22;;;;;;;26.58;48.01;101252.00;5065578;28;20036;-66
2022/07/13 00:57:51;;;;;;;1.08;0.20;;;;;;;26.57;47.91;101251.19;5068837;28;20098;-66
2022/07/13 01:00:16;;;;;;;0.50;0.20;;;;;;;26.57;48.00;101253.88;5067860;28;20472;-67
2022/07/13 01:02:45;;;;;;;1.58;0.20;;;;;;;26.59;47.68;101249.13;5070042;28;20363;-66
2022/07/13 01:05:12;;;;;;;1.38;0.10;;;;;;;26.59;47.81;101249.13;5069545;28;20152;-66
2022/07/13 01:07:38;;;;;;;0.70;0.20;;;;;;;26.60;47.98;101256.09;5069649;28;20029;-67
2022/07/13 01:10:05;;;;;;;1.25;0.30;;;;;;;26.60;47.87;101256.09;5069918;28;20034;-66
2022/07/13 01:12:32;;;;;;;0.50;0.10;;;;;;;26.60;47.63;101250.75;5067721;28;20120;-66
2022/07/13 01:14:58;;;;;;;1.42;0.50;;;;;;;26.61;47.76;101246.22;5069350;28;20357;-66
2022/07/13 01:17:26;;;;;;;1.95;0.30;;;;;;;26.61;47.67;101249.69;5068245;28;20040;-66
2022/07/13 01:19:52;;;;;;;0.85;0.20;;;;;;;26.62;47.66;101247.84;5069629;28;20032;-66
2022/07/13 01:22:21;;;;;;;2.35;0.30;;;;;;;26.60;47.73;101244.59;5067453;28;20388;-67
2022/07/13 01:24:48;;;;;;;0.40;0.10;;;;;;;26.61;47.75;101246.22;5069353;28;20115;-66
2022/07/13 01:27:14;;;;;;;0.55;0.20;;;;;;;26.60;47.40;101240.06;5068215;28;20033;-66
2022/07/13 01:29:40;;;;;;;0.35;0.10;;;;;;;26.61;47.69;101243.53;5067989;28;20032;-67
2022/07/13 01:32:05;;;;;;;0.20;0.10;;;;;;;26.60;47.55;101250.75;5069234;28;20048;-66
2022/07/13 01:34:31;;;;;;;0.60;0.20;;;;;;;26.60;47.53;101240.06;5067536;28;20085;-66
2022/07/13 01:36:57;;;;;;;1.02;0.20;;;;;;;26.58;47.64;101239.47;5068957;28;20088;-66
2022/07/13 01:39:23;;;;;;;2.10;0.25;;;;;;;26.57;47.61;101240.50;5068666;28;20560;-66
2022/07/13 01:41:49;;;;;;;0.75;0.10;;;;;;;26.57;47.79;101245.84;5068065;28;20479;-66
2022/07/13 01:44:15;;;;;;;0.25;0.10;;;;;;;26.57;47.67;101245.84;5066774;28;20059;-67
2022/07/13 01:46:40;;;;;;;1.55;0.13;;;;;;;26.56;47.47;101238.88;5068749;28;20111;-66
2022/07/13 01:49:05;;;;;;;0.70;0.20;;;;;;;26.57;47.67;101237.84;5068650;28;20036;-67
2022/07/13 01:51:31;;;;;;;0.40;0.10;;;;;;;26.56;47.67;101232.72;5068974;28;20141;-66
2022/07/13 01:53:56;;;;;;;0.63;0.20;;;;;;;26.56;47.59;101232.72;5066582;28;20048;-67
2022/07/13 01:56:22;;;;;;;0.60;0.10;;;;;;;26.55;47.35;101231.91;5068670;28;20211;-67
2022/07/13 01:58:47;;;;;;;1.25;0.20;;;;;;;26.55;47.55;101229.25;5067937;28;20036;-66
2022/07/13 02:01:13;;;;;;;1.00;0.20;;;;;;;26.55;47.50;101231.09;5068583;28;20063;-67
2022/07/13 02:03:38;;;;;;;1.63;0.17;;;;;;;26.54;47.23;101235.63;5066413;28;20407;-67
2022/07/13 02:06:05;;;;;;;0.60;0.20;;;;;;;26.53;47.23;101228.66;5068805;28;20140;-67
2022/07/13 02:08:30;;;;;;;1.20;0.20;;;;;;;26.52;47.15;101227.03;5068558;28;20116;-66
2022/07/13 02:10:56;;;;;;;2.53;0.20;;;;;;;26.49;46.93;101224.81;5068686;28;20552;-66
2022/07/13 02:13:21;;;;;;;1.38;0.38;;;;;;;26.48;46.98;101225.88;5066932;28;20439;-66
2022/07/13 02:15:47;;;;;;;1.00;0.20;;;;;;;26.47;46.88;101231.47;5068708;28;20028;-66
2022/07/13 02:18:13;;;;;;;0.40;0.20;;;;;;;26.45;47.03;101231.69;5068617;28;20032;-67
2022/07/13 02:20:38;;;;;;;1.23;0.10;;;;;;;26.45;46.89;101226.34;5068514;28;20075;-66
2022/07/13 02:23:05;;;;;;;1.60;0.17;;;;;;;26.46;46.80;101233.31;5066429;28;20040;-66
2022/07/13 02:25:32;;;;;;;0.60;0.20;;;;;;;26.46;46.65;101225.31;5068598;28;20049;-67
2022/07/13 02:27:57;;;;;;;0.82;0.10;;;;;;;26.46;46.79;101230.66;5067454;28;20529;-67
2022/07/13 02:30:23;;;;;;;1.05;0.20;;;;;;;26.48;46.67;101235.75;5067428;28;20036;-66
2022/07/13 02:32:48;;;;;;;0.40;0.20;;;;;;;26.48;46.47;101236.56;5068317;28;20062;-67
2022/07/13 02:35:14;;;;;;;0.60;0.30;;;;;;;26.49;46.77;101237.38;5068528;28;20025;-67
2022/07/13 02:37:40;;;;;;;0.90;0.20;;;;;;;26.49;46.61;101240.03;5068211;28;20063;-67
2022/07/13 02:42:34;;;;;;;1.20;0.20;;;;;;;26.50;46.77;101231.78;5238205;22;20080;-71
2022/07/13 02:44:59;;;;;;;1.55;0.13;;;;;;;26.51;46.58;101225.41;5047939;28;20138;-72
2022/07/13 02:47:25;;;;;;;0.73;0.20;;;;;;;26.52;46.59;101231.56;5047990;28;20029;-71
2022/07/13 02:49:50;;;;;;;1.30;0.25;;;;;;;26.53;46.57;101239.34;5047812;28;20055;-71
2022/07/13 02:52:16;;;;;;;0.40;0.10;;;;;;;26.52;46.46;101242.25;5051876;28;20482;-71
2022/07/13 02:54:42;;;;;;;2.28;0.25;;;;;;;26.52;46.41;101243.06;5052392;28;20448;-71
2022/07/13 02:57:07;;;;;;;0.98;0.20;;;;;;;26.51;46.73;101244.09;5052279;28;20025;-72
2022/07/13 02:59:36;;;;;;;0.75;0.20;;;;;;;26.51;46.58;101241.44;5052281;28;20110;-72
2022/07/13 03:02:03;;;;;;;1.02;0.20;;;;;;;26.48;46.67;101235.75;5050175;28;20029;-71
2022/07/13 03:04:28;;;;;;;0.70;0.20;;;;;;;26.47;46.76;101244.81;5050464;28;20471;-71
2022/07/13 03:06:54;;;;;;;0.88;0.20;;;;;;;26.46;46.80;101244.00;5048542;28;20025;-70
2022/07/13 03:09:20;;;;;;;1.20;0.30;;;;;;;26.44;46.74;101243.44;5048555;28;20037;-70
2022/07/13 03:11:45;;;;;;;1.75;0.20;;;;;;;26.43;46.64;101239.13;5047775;28;20071;-69
2022/07/13 03:14:11;;;;;;;1.20;0.30;;;;;;;26.41;46.44;101241.22;5047479;28;20427;-72
2022/07/13 03:16:36;;;;;;;0.60;0.20;;;;;;;26.39;46.60;101243.31;5047794;28;20396;-70
2022/07/13 03:19:02;;;;;;;0.70;0.20;;;;;;;26.36;46.70;101239.22;5048632;28;20032;-72
2022/07/13 03:21:29;;;;;;;2.30;0.20;;;;;;;26.36;46.60;101244.56;5051156;28;20020;-71
2022/07/13 03:23:55;;;;;;;0.32;0.20;;;;;;;26.36;46.51;101249.09;5051227;28;20512;-72
2022/07/13 03:26:21;;;;;;;1.63;0.20;;;;;;;26.36;46.54;101246.44;5051282;28;20061;-71
2022/07/13 03:28:46;;;;;;;0.70;0.20;;;;;;;26.35;46.42;101247.47;5051031;28;20033;-71
2022/07/13 03:31:11;;;;;;;1.02;0.20;;;;;;;26.35;46.64;101252.81;5051342;28;20100;-70
2022/07/13 03:33:37;;;;;;;0.85;0.20;;;;;;;26.34;46.67;101251.19;5051236;28;20343;-70
2022/07/13 03:36:03;;;;;;;1.63;0.30;;;;;;;26.33;46.66;101260.25;5051106;28;20035;-70
2022/07/13 03:38:28;;;;;;;0.73;0.20;;;;;;;26.33;46.46;101260.25;5050875;28;20489;-71
2022/07/13 03:40:54;;;;;;;4.72;0.30;;;;;;;26.35;46.36;101260.84;5051074;28;20025;-70
2022/07/13 03:43:19;;;;;;;1.70;0.40;;;;;;;26.36;46.33;101265.94;5050975;28;20511;-70
2022/07/13 03:45:45;;;;;;;0.95;0.30;;;;;;;26.38;46.34;101269.19;5050875;28;20451;-71
2022/07/13 03:48:12;;;;;;;0.95;0.28;;;;;;;26.40;46.21;101269.78;5051170;28;20363;-69
2022/07/13 03:50:38;;;;;;;2.03;0.20;;;;;;;26.41;46.08;101270.59;5050992;28;20477;-71
2022/07/13 03:53:04;;;;;;;1.92;0.30;;;;;;;26.41;46.29;101263.41;5050757;28;20044;-72
2022/07/13 03:55:29;;;;;;;1.00;0.40;;;;;;;26.41;46.37;101263.41;5050774;28;20040;-69
2022/07/13 03:57:54;;;;;;;2.53;0.30;;;;;;;26.42;46.29;101265.03;5050844;28;20032;-70
2022/07/13 04:00:21;;;;;;;1.27;0.30;;;;;;;26.43;46.01;101268.50;5050798;28;20031;-70
2022/07/13 04:02:46;;;;;;;1.30;0.25;;;;;;;26.42;46.18;101265.03;5050765;28;20115;-71
2022/07/13 04:05:12;;;;;;;1.23;0.30;;;;;;;26.41;46.06;101267.94;5050393;28;20129;-71
2022/07/13 04:07:37;;;;;;;2.75;0.20;;;;;;;26.41;46.41;101262.59;5050930;28;20043;-69
2022/07/13 04:10:03;;;;;;;0.68;0.20;;;;;;;26.38;46.27;101271.06;5050643;28;20351;-69
2022/07/13 04:12:28;;;;;;;1.73;0.30;;;;;;;26.36;46.32;101268.63;5050439;28;20065;-70
2022/07/13 04:14:55;;;;;;;1.15;0.20;;;;;;;26.35;46.09;101269.66;5050423;28;20040;-70
2022/07/13 04:17:20;;;;;;;0.95;0.30;;;;;;;26.34;46.35;101269.88;5050349;28;20125;-71
2022/07/13 04:19:45;;;;;;;1.02;0.30;;;;;;;26.33;46.13;101271.75;5050287;28;20122;-71
2022/07/13 04:22:11;;;;;;;0.88;0.22;;;;;;;26.33;46.25;101276.28;5050154;28;20017;-70
2022/07/13 04:24:36;;;;;;;2.70;0.30;;;;;;;26.32;46.17;101274.66;5050190;28;20099;-71
2022/07/13 04:27:01;;;;;;;0.85;0.25;;;;;;;26.30;46.15;101279.38;5050410;28;20028;-70
2022/07/13 04:29:27;;;;;;;0.65;0.20;;;;;;;26.29;46.29;101283.91;5050316;28;20029;-71
2022/07/13 04:31:52;;;;;;;1.13;0.20;;;;;;;26.29;46.24;101285.75;5049819;28;20443;-70
2022/07/13 04:34:18;;;;;;;0.50;0.20;;;;;;;26.27;46.32;101288.66;5049800;28;20507;-71
2022/07/13 04:36:43;;;;;;;1.20;0.28;;;;;;;26.27;46.04;101285.97;5049941;28;20036;-70
2022/07/13 04:39:09;;;;;;;0.77;0.20;;;;;;;26.28;46.09;101284.94;5049641;28;20033;-70
2022/07/13 04:41:35;;;;;;;0.93;0.20;;;;;;;26.30;46.18;101287.38;5049759;28;20096;-69
2022/07/13 04:44:01;;;;;;;0.82;0.30;;;;;;;26.30;46.12;101292.72;5050094;28;20392;-70
2022/07/13 04:46:27;;;;;;;1.50;0.40;;;;;;;26.31;45.98;101294.38;5049810;28;20052;-72
2022/07/13 04:48:53;;;;;;;1.25;0.30;;;;;;;26.31;46.14;101299.72;5049830;28;20110;-69
2022/07/13 04:51:18;;;;;;;1.13;0.20;;;;;;;26.30;46.03;101293.53;5031443;28;20477;-70
2022/07/13 04:53:44;;;;;;;0.82;0.10;;;;;;;26.31;45.95;101305.88;5049688;28;20078;-70
2022/07/13 04:56:10;;;;;;;1.20;0.20;;;;;;;26.31;45.86;101305.06;5049254;28;20373;-70
2022/07/13 04:58:35;;;;;;;2.50;0.20;;;;;;;26.32;45.80;101299.50;5049452;28;20031;-70
2022/07/13 05:01:01;;;;;;;0.38;0.10;;;;;;;26.34;45.79;101305.44;5049668;28;20029;-70
2022/07/13 05:03:27;;;;;;;0.30;0.17;;;;;;;26.35;45.99;101312.41;5049688;28;20112;-71
2022/07/13 05:05:54;;;;;;;0.47;0.13;;;;;;;26.35;45.77;101308.91;5049519;28;20039;-69
2022/07/13 05:08:19;;;;;;;1.20;0.20;;;;;;;26.36;45.86;101314.03;5049580;28;20025;-70
2022/07/13 05:10:46;;;;;;;2.22;0.30;;;;;;;26.37;45.72;101314.84;5049324;28;20498;-71
2022/07/13 05:13:11;;;;;;;1.42;0.20;;;;;;;26.36;45.91;101315.88;5049332;28;20090;-70
2022/07/13 05:15:37;;;;;;;0.68;0.22;;;;;;;26.37;45.86;101322.88;5049402;28;20389;-71
2022/07/13 05:18:02;;;;;;;0.85;0.20;;;;;;;26.36;45.93;101318.56;5049257;28;20032;-70
2022/07/13 05:20:27;;;;;;;1.20;0.10;;;;;;;26.37;45.71;101320.19;5048978;28;20044;-70
2022/07/13 05:22:53;;;;;;;0.50;0.20;;;;;;;26.37;45.79;101330.88;5049376;28;20056;-70
2022/07/13 05:25:18;;;;;;;1.02;0.28;;;;;;;26.38;45.91;101322.63;5049317;28;20045;-71
2022/07/13 05:27:44;;;;;;;1.13;0.30;;;;;;;26.36;45.98;101324.72;5049331;28;20029;-70
2022/07/13 05:30:09;;;;;;;1.15;0.20;;;;;;;26.35;45.94;101324.94;5049086;28;20385;-70
2022/07/13 05:32:35;;;;;;;1.08;0.20;;;;;;;26.34;46.00;101334.00;5048935;28;20029;-72
2022/07/13 05:35:00;;;;;;;2.60;0.20;;;;;;;26.33;45.93;101329.69;5048651;28;20017;-71
2022/07/13 05:37:26;;;;;;;1.08;0.20;;;;;;;26.32;45.94;101328.88;5048704;28;20512;-72
2022/07/13 05:39:51;;;;;;;1.65;0.20;;;;;;;26.30;45.95;101325.59;5048668;28;20032;-72
2022/07/13 05:42:17;;;;;;;2.63;0.20;;;;;;;26.30;46.01;101336.28;5048008;28;20136;-70
2022/07/13 05:44:42;;;;;;;2.67;0.30;;;;;;;26.30;45.67;101335.47;5048830;28;20025;-71
2022/07/13 05:47:07;;;;;;;0.60;0.28;;;;;;;26.29;45.60;101342.66;5049095;28;20025;-71
2022/07/13 05:49:33;;;;;;;2.17;0.17;;;;;;;26.31;45.94;101339.78;5048874;28;20060;-71
2022/07/13 05:51:59;;;;;;;2.22;0.30;;;;;;;26.30;45.70;101338.94;5048662;28;20436;-71
2022/07/13 05:54:25;;;;;;;0.50;0.20;;;;;;;26.29;45.83;101339.19;5048836;28;20425;-70
2022/07/13 05:56:50;;;;;;;0.30;0.20;;;;;;;26.30;45.75;101338.13;5044657;28;20080;-71
2022/07/13 05:59:15;;;;;;;3.95;0.30;;;;;;;26.29;45.87;101340.00;5048398;28;20148;-71
2022/07/13 06:01:41;;;;;;;0.55;0.10;;;;;;;26.29;45.76;101349.84;5048331;28;20033;-73
2022/07/13 06:04:06;;;;;;;0.55;0.20;;;;;;;26.28;45.71;101348.22;5048403;28;20024;-71
2022/07/13 06:06:32;;;;;;;1.83;0.20;;;;;;;26.27;45.75;101350.09;5045948;28;20029;-72
2022/07/13 06:08:57;;;;;;;0.35;0.20;;;;;;;26.27;45.80;101351.94;5048371;28;20095;-71
2022/07/13 06:11:22;;;;;;;2.65;0.20;;;;;;;26.25;45.49;101336.13;5046803;28;20078;-69
2022/07/13 06:13:48;;;;;;;1.77;0.20;;;;;;;26.25;45.75;101338.00;5048611;28;20024;-72
2022/07/13 06:16:13;;;;;;;0.65;0.20;;;;;;;26.25;45.64;101333.47;5045802;28;20051;-73
2022/07/13 06:18:39;;;;;;;0.60;0.20;;;;;;;26.27;45.74;101343.94;5048235;28;20455;-71
2022/07/13 06:21:05;;;;;;;0.60;0.20;;;;;;;26.28;45.86;101340.22;5046463;28;20037;-73
2022/07/13 06:23:30;;;;;;;0.40;0.20;;;;;;;26.28;45.88;101337.53;5048451;28;20299;-70
2022/07/13 06:25:56;;;;;;;1.15;0.20;;;;;;;26.29;45.87;101344.53;5046331;28;20135;-72
2022/07/13 06:28:21;;;;;;;0.73;0.25;;;;;;;26.29;45.78;101344.53;5048611;28;20025;-73
2022/07/13 06:30:46;;;;;;;1.90;0.30;;;;;;;26.29;45.71;101347.19;5048186;28;20506;-70
2022/07/13 06:33:12;;;;;;;2.38;0.20;;;;;;;26.30;45.87;101346.97;5047990;28;20479;-72
2022/07/13 06:35:37;;;;;;;0.70;0.13;;;;;;;26.29;45.88;101355.19;5047898;28;20353;-72
2022/07/13 06:38:03;;;;;;;1.27;0.10;;;;;;;26.30;45.66;101354.97;5044684;28;20089;-71
2022/07/13 06:40:28;;;;;;;0.85;0.20;;;;;;;26.31;45.74;101358.50;5048001;28;20475;-73
2022/07/13 06:42:54;;;;;;;1.92;0.15;;;;;;;26.31;45.50;101353.16;5046369;28;20083;-71
2022/07/13 06:45:22;;;;;;;1.00;0.22;;;;;;;26.31;45.70;101353.16;5047884;28;20542;-70
2022/07/13 06:47:48;;;;;;;0.60;0.20;;;;;;;26.31;45.45;101350.47;5047092;28;20052;-71
2022/07/13 06:50:13;;;;;;;0.60;0.20;;;;;;;26.30;45.41;101354.97;5047848;28;20110;-71
2022/07/13 06:52:40;;;;;;;0.20;0.10;;;;;;;26.29;45.41;101349.84;5042771;28;20163;-73
2022/07/13 06:55:07;;;;;;;1.27;0.17;;;;;;;26.29;45.66;101340.00;5050324;28;20021;-70
2022/07/13 06:57:33;;;;;;;0.60;0.20;;;;;;;26.27;45.74;101341.25;5050142;28;20056;-72
2022/07/13 06:59:59;;;;;;;0.60;0.20;;;;;;;26.27;45.70;101347.41;5051930;28;20104;-72
2022/07/13 07:02:24;;;;;;;0.88;0.25;;;;;;;26.26;45.70;101340.44;5052125;28;20035;-71
2022/07/13 07:04:51;;;;;;;2.30;0.15;;;;;;;26.25;45.83;101335.31;5051472;28;20069;-70
2022/07/13 07:07:16;;;;;;;2.35;0.30;;;;;;;26.24;45.96;101325.69;5049321;28;20029;-72
2022/07/13 07:09:42;;;;;;;0.88;0.20;;;;;;;26.23;45.88;101330.22;5051939;28;20028;-71
2022/07/13 07:12:07;;;;;;;0.38;0.20;;;;;;;26.21;46.00;101334.97;5050133;28;20035;-71
2022/07/13 07:14:33;;;;;;;2.03;0.20;;;;;;;26.22;45.85;101322.44;5052097;28;20464;-70
2022/07/13 07:16:59;;;;;;;1.75;0.40;;;;;;;26.21;46.05;101323.47;5049265;28;20171;-70
2022/07/13 07:19:24;;;;;;;2.47;0.30;;;;;;;26.21;46.15;101321.63;5046027;28;20025;-71
2022/07/13 07:21:50;;;;;;;1.48;0.30;;;;;;;26.20;46.83;101319.16;5068194;28;20024;-71
2022/07/13 07:24:15;;;;;;;1.83;0.28;;;;;;;26.19;46.47;101322.88;5065447;28;20024;-72
2022/07/13 07:26:41;;;;;;;1.70;0.17;;;;;;;26.17;46.43;101319.63;5049595;28;20474;-70
2022/07/13 07:29:06;;;;;;;1.33;0.20;;;;;;;26.23;46.78;101314.19;5054521;28;20459;-70
2022/07/13 07:31:32;;;;;;;1.27;0.30;;;;;;;26.35;46.92;101315.06;5049847;28;20082;-71
2022/07/13 07:33:57;;;;;;;1.45;0.50;;;;;;;26.40;47.00;101312.53;5050655;28;20156;-71
2022/07/13 07:36:22;;;;;;;3.38;0.30;;;;;;;26.45;46.98;101311.84;5050938;28;20033;-71
2022/07/13 07:38:48;;;;;;;7.18;3.70;;;;;;;26.49;47.00;101318.34;5049328;28;20040;-71
2022/07/13 07:41:13;;;;;;;6.68;2.85;;;;;;;26.52;47.14;101312.53;5049443;28;20029;-72
2022/07/13 07:43:39;;;;;;;1.42;0.68;;;;;;;26.53;46.87;101316.84;5049392;28;20029;-70
2022/07/13 07:46:04;;;;;;;2.15;0.40;;;;;;;26.50;46.88;101314.63;5050717;28;20523;-71
2022/07/13 07:48:30;;;;;;;2.15;0.30;;;;;;;26.47;46.52;101315.09;5046012;28;20035;-72
2022/07/13 07:50:56;;;;;;;0.68;0.20;;;;;;;26.48;46.63;101316.72;5048847;28;20078;-72
2022/07/13 07:53:21;;;;;;;0.80;0.20;;;;;;;26.47;46.73;101314.28;5051114;28;20033;-69
2022/07/13 07:55:47;;;;;;;1.15;0.25;;;;;;;26.45;46.69;101314.53;5048791;28;20401;-71
2022/07/13 07:58:13;;;;;;;2.70;0.30;;;;;;;26.44;46.35;101323.59;5048825;28;20033;-70
2022/07/13 08:00:40;;;;;;;0.65;0.20;;;;;;;26.44;46.20;101312.91;5048837;28;20024;-70
2022/07/13 08:03:06;;;;;;;0.75;0.28;;;;;;;26.42;46.21;101313.13;5047761;28;20404;-71
2022/07/13 08:05:32;;;;;;;1.77;0.30;;;;;;;26.40;45.89;101309.88;5048131;28;20021;-71
2022/07/13 08:07:58;;;;;;;1.33;0.25;;;;;;;26.36;45.85;101311.34;5049025;28;20064;-70
2022/07/13 08:10:23;;;;;;;0.95;0.30;;;;;;;26.32;45.86;101312.03;5048449;28;20048;-70
2022/07/13 08:12:49;;;;;;;1.17;0.30;;;;;;;26.32;45.83;101312.03;5048882;28;20025;-71
2022/07/13 08:15:14;;;;;;;2.60;0.30;;;;;;;26.30;45.70;101314.91;5048493;28;20497;-70
2022/07/13 08:17:40;;;;;;;0.68;0.22;;;;;;;26.30;45.92;101309.56;5048233;28;20056;-71
2022/07/13 08:20:07;;;;;;;2.45;0.30;;;;;;;26.32;46.51;101309.38;5047769;28;20037;-70
2022/07/13 08:22:32;;;;;;;4.10;0.45;;;;;;;26.31;46.15;101311.22;5048602;28;20537;-70
2022/07/13 08:24:58;;;;;;;2.75;0.38;;;;;;;26.29;45.88;101305.25;5048430;28;20028;-72
2022/07/13 08:27:23;;;;;;;4.25;0.20;;;;;;;26.28;45.54;101300.16;5048452;28;20025;-71
2022/07/13 08:29:49;;;;;;;4.22;0.22;;;;;;;26.26;45.47;101297.72;5048378;28;20071;-71
2022/07/13 08:32:14;;;;;;;1.77;0.20;;;;;;;26.26;45.21;101300.38;5049783;28;20029;-71
2022/07/13 08:40:10;;;;;;;2.35;0.20;;;;;;;26.23;45.31;101281.31;5049076;28;20103;-71
2022/07/13 08:42:36;;;;;;;1.75;0.20;;;;;;;26.21;44.86;101278.88;5047909;28;20064;-70
2022/07/13 08:45:03;;;;;;;3.42;0.20;;;;;;;26.23;44.82;101286.66;5048265;28;20021;-70
2022/07/13 08:47:30;;;;;;;2.83;0.22;;;;;;;26.24;44.91;101289.09;5049502;28;20489;-71
2022/07/13 08:50:05;;;;;;;1.60;0.20;;;;;;;26.26;44.91;101284.34;5046802;28;20476;-69
2022/07/13 08:52:33;;;;;;;2.65;0.20;;;;;;;26.29;45.00;101288.44;5048622;28;20047;-70
2022/07/13 08:54:59;;;;;;;0.77;0.20;;;;;;;26.30;44.97;101284.72;5046114;28;20112;-70
2022/07/13 08:57:24;;;;;;;0.47;0.28;;;;;;;26.29;45.12;101283.91;5048103;28;20115;-69
2022/07/13 08:59:51;;;;;;;1.45;0.20;;;;;;;26.31;45.03;101289.03;5045833;28;20028;-70
2022/07/13 09:02:16;;;;;;;0.30;0.20;;;;;;;26.30;45.20;101292.72;5048141;28;20041;-70
2022/07/13 09:04:43;;;;;;;1.10;0.40;;;;;;;26.30;45.29;101290.06;5047156;28;20036;-70
2022/07/13 09:07:11;;;;;;;1.05;0.20;;;;;;;26.31;45.69;101289.03;5045235;28;20048;-69
2022/07/13 09:09:38;;;;;;;1.23;0.20;;;;;;;26.31;45.69;101295.19;5046433;28;20035;-71
2022/07/13 09:12:18;;;;;;;0.68;0.20;;;;;;;26.28;45.78;101295.63;5047599;28;20029;-70
2022/07/13 09:14:59;;;;;;;0.88;0.20;;;;;;;26.27;45.18;101302.00;5047490;28;20372;-70
2022/07/13 09:17:36;;;;;;;1.30;0.20;;;;;;;26.26;45.20;101302.22;5046790;28;20041;-70
2022/07/13 09:20:14;;;;;;;0.57;0.20;;;;;;;26.24;45.13;101299.78;5045936;28;20025;-70
2022/07/13 09:22:50;;;;;;;1.30;0.30;;;;;;;26.23;45.03;101292.81;5047640;28;20035;-71
2022/07/13 09:25:37;;;;;;;1.67;0.20;;;;;;;26.22;45.17;101296.53;5048093;28;20036;-71
2022/07/13 09:28:05;;;;;;;1.83;0.40;;;;;;;26.23;45.63;101294.69;5046292;28;20070;-70
2022/07/13 09:30:32;;;;;;;2.78;0.20;;;;;;;26.24;45.59;101293.63;5048823;28;20029;-70
2022/07/13 09:32:59;;;;;;;1.00;0.20;;;;;;;26.25;45.94;101290.72;5044706;28;20484;-71
2022/07/13 09:35:47;;;;;;;2.92;0.20;;;;;;;26.25;46.42;101289.91;5048397;28;20031;-70
2022/07/13 09:38:36;;;;;;;1.30;0.20;;;;;;;26.26;46.28;101294.22;5047138;28;20357;-69
2022/07/13 09:41:25;;;;;;;0.50;0.20;;;;;;;26.25;45.92;101290.72;5047155;28;20075;-71
2022/07/13 09:47:05;;;;;;;2.25;0.20;;;;;;;26.26;44.92;101291.56;5048587;28;20044;-70
2022/07/13 09:49:41;;;;;;;1.00;0.20;;;;;;;26.25;43.83;101284.56;5045468;28;20047;-72
2022/07/13 09:52:10;;;;;;;0.40;0.13;;;;;;;26.28;43.73;101284.13;5046971;28;20033;-72
2022/07/13 09:54:38;;;;;;;1.13;0.20;;;;;;;26.30;43.87;101282.03;5046264;28;20493;-69
2022/07/13 09:57:08;;;;;;;1.20;0.30;;;;;;;26.31;44.18;101283.69;5046123;28;20048;-71
2022/07/13 09:59:35;;;;;;;4.20;0.32;;;;;;;26.30;44.28;101279.38;5047681;28;20036;-71
2022/07/13 10:02:02;;;;;;;1.13;0.20;;;;;;;26.31;44.74;101270.34;5047067;28;20473;-70
2022/07/13 10:04:29;;;;;;;0.55;0.20;;;;;;;26.33;44.66;101276.28;5047334;28;20116;-70
2022/07/13 10:06:55;;;;;;;2.97;0.30;;;;;;;26.35;44.63;101279.53;5048535;28;20108;-70
2022/07/13 10:11:53;;;;;;;1.05;0.20;;;;;;;26.36;44.42;101281.16;5047926;28;20037;-70
2022/07/13 10:14:19;;;;;;;1.00;0.30;;;;;;;26.36;44.46;101275.81;5047771;28;20810;-69
2022/07/13 10:16:46;;;;;;;0.85;0.30;;;;;;;26.38;44.83;101284.41;5048335;28;20029;-71
2022/07/13 10:19:12;;;;;;;1.75;0.20;;;;;;;26.39;44.78;101283.38;5046255;28;20037;-71
2022/07/13 10:22:01;;;;;;;0.50;0.20;;;;;;;26.36;44.91;101271.28;5046024;28;20028;-70
2022/07/13 10:24:28;;;;;;;1.38;0.30;;;;;;;26.38;44.95;101274.53;5045590;28;20044;-70
2022/07/13 10:27:25;;;;;;;0.65;0.30;;;;;;;26.37;45.41;101275.59;5046221;28;20555;-70
2022/07/13 10:29:55;;;;;;;3.83;0.77;;;;;;;26.39;45.33;101270.00;5046468;28;20120;-70
2022/07/13 10:32:23;;;;;;;3.53;0.60;;;;;;;26.40;45.20;101268.97;5046467;28;20036;-69
2022/07/13 10:35:04;;;;;;;2.35;0.70;;;;;;;26.40;45.15;101275.13;5046081;28;20389;-71
2022/07/13 10:37:58;;;;;;;1.23;0.50;;;;;;;26.41;45.16;101263.41;5027147;28;20443;-71
2022/07/13 10:40:34;;;;;;;0.40;0.32;;;;;;;26.41;45.21;101267.94;5046449;28;20119;-71
2022/07/13 10:43:05;;;;;;;1.67;0.30;;;;;;;26.42;45.00;101262.34;5045448;28;20382;-70
2022/07/13 10:45:34;;;;;;;3.92;0.20;;;;;;;26.42;44.84;101258.88;5045819;28;20129;-69
2022/07/13 10:48:04;;;;;;;0.88;0.30;;;;;;;26.42;44.91;101249.00;5045970;28;20033;-73
2022/07/13 10:50:34;;;;;;;1.85;0.30;;;;;;;26.43;45.12;101252.50;5045581;28;20469;-72
2022/07/13 10:53:01;;;;;;;1.77;0.30;;;;;;;26.43;45.25;101244.47;5045137;28;20079;-71
2022/07/13 10:55:31;;;;;;;0.70;0.30;;;;;;;26.46;45.45;101246.69;5047632;28;20029;-72
2022/07/13 10:57:57;;;;;;;1.45;0.47;;;;;;;26.47;45.57;101242.16;5046281;28;20057;-72
2022/07/13 11:00:37;;;;;;;2.47;0.63;;;;;;;26.45;45.72;101237.03;5046109;28;20035;-71
2022/07/13 11:03:06;;;;;;;1.98;0.73;;;;;;;26.48;45.99;101246.44;5044922;28;20477;-72
2022/07/13 11:05:36;;;;;;;1.25;0.50;;;;;;;26.50;45.92;101244.34;5046263;28;20056;-70
2022/07/13 11:08:15;;;;;;;1.10;0.65;;;;;;;26.51;45.93;101245.97;5043660;28;20036;-71
2022/07/13 11:10:42;;;;;;;1.83;0.90;;;;;;;26.51;45.96;101246.78;5046660;28;20431;-70
2022/07/13 11:13:12;;;;;;;1.52;1.10;;;;;;;26.52;45.77;101243.06;5045054;28;20435;-73
2022/07/13 11:15:52;;;;;;;2.03;0.80;;;;;;;26.51;45.82;101233.41;5041933;28;20029;-73
2022/07/13 11:18:33;;;;;;;1.77;0.73;;;;;;;26.55;45.63;101237.25;5044331;28;20029;-73
2022/07/13 11:21:05;;;;;;;1.00;0.50;;;;;;;26.57;45.49;101237.03;5045821;28;20040;-72
2022/07/13 11:26:46;;;;;;;2.97;0.52;;;;;;;26.58;45.60;101234.13;5041609;28;20090;-72
2022/07/13 11:29:27;;;;;;;1.52;0.40;;;;;;;26.59;45.41;101240.28;5036458;28;20381;-70
2022/07/13 11:32:01;;;;;;;2.17;0.50;;;;;;;26.59;45.38;101237.63;5046405;28;20051;-71
2022/07/13 11:34:27;;;;;;;3.33;0.40;;;;;;;26.59;44.51;101227.72;5044774;28;20033;-71
2022/07/13 11:36:58;;;;;;;0.80;0.40;;;;;;;26.60;44.28;101217.84;5045529;28;20401;-70
2022/07/13 11:39:31;;;;;;;1.52;0.43;;;;;;;26.62;44.40;101221.13;5041679;28;20033;-69
2022/07/13 11:42:02;;;;;;;0.63;0.30;;;;;;;26.62;44.20;101221.94;5048197;28;20052;-70